sensor_id;sensor_type;location;lat;lon;timestamp;temperature;humidity
37782;DHT22;23621;50.878;4.584;2023-05-07T00:02:23;22.30;73.10
37782;DHT22;23621;50.878;4.584;2023-05-07T00:05:11;22.30;73.20
37782;DHT22;23621;50.878;4.584;2023-05-07T00:07:59;22.30;73.40
37782;DHT22;23621;50.878;4.584;2023-05-07T00:10:46;22.30;73.40
37782;DHT22;23621;50.878;4.584;2023-05-07T00:13:33;22.30;73.50
37782;DHT22;23621;50.878;4.584;2023-05-07T00:16:22;22.30;73.60
37782;DHT22;23621;50.878;4.584;2023-05-07T00:19:09;22.30;73.60
37782;DHT22;23621;50.878;4.584;2023-05-07T00:21:57;22.30;73.60
37782;DHT22;23621;50.878;4.584;2023-05-07T00:24:45;22.30;73.70
37782;DHT22;23621;50.878;4.584;2023-05-07T00:27:32;22.30;73.70
37782;DHT22;23621;50.878;4.584;2023-05-07T00:30:19;22.30;73.70
37782;DHT22;23621;50.878;4.584;2023-05-07T00:33:06;22.30;73.80
37782;DHT22;23621;50.878;4.584;2023-05-07T00:35:54;22.30;74.50
37782;DHT22;23621;50.878;4.584;2023-05-07T00:38:41;22.30;73.80
37782;DHT22;23621;50.878;4.584;2023-05-07T00:41:28;22.30;73.80
37782;DHT22;23621;50.878;4.584;2023-05-07T00:44:17;22.30;73.80
37782;DHT22;23621;50.878;4.584;2023-05-07T00:47:05;22.30;73.70
37782;DHT22;23621;50.878;4.584;2023-05-07T00:49:52;22.30;73.70
37782;DHT22;23621;50.878;4.584;2023-05-07T00:52:40;22.30;73.50
37782;DHT22;23621;50.878;4.584;2023-05-07T00:55:29;22.30;73.50
37782;DHT22;23621;50.878;4.584;2023-05-07T00:58:16;22.30;73.40
37782;DHT22;23621;50.878;4.584;2023-05-07T01:01:04;22.40;73.60
37782;DHT22;23621;50.878;4.584;2023-05-07T01:03:51;22.30;73.60
37782;DHT22;23621;50.878;4.584;2023-05-07T01:06:39;22.30;73.70
37782;DHT22;23621;50.878;4.584;2023-05-07T01:09:28;22.30;73.80
37782;DHT22;23621;50.878;4.584;2023-05-07T01:12:15;22.30;73.80
37782;DHT22;23621;50.878;4.584;2023-05-07T01:15:04;22.30;73.90
37782;DHT22;23621;50.878;4.584;2023-05-07T01:17:52;22.30;74.20
37782;DHT22;23621;50.878;4.584;2023-05-07T01:20:39;22.20;74.00
37782;DHT22;23621;50.878;4.584;2023-05-07T01:23:27;22.20;74.10
37782;DHT22;23621;50.878;4.584;2023-05-07T01:26:14;22.20;74.10
37782;DHT22;23621;50.878;4.584;2023-05-07T01:29:02;22.20;74.20
37782;DHT22;23621;50.878;4.584;2023-05-07T01:31:50;22.20;74.20
37782;DHT22;23621;50.878;4.584;2023-05-07T01:34:39;22.10;74.20
37782;DHT22;23621;50.878;4.584;2023-05-07T01:37:27;22.10;74.30
37782;DHT22;23621;50.878;4.584;2023-05-07T01:40:15;22.10;74.30
37782;DHT22;23621;50.878;4.584;2023-05-07T01:43:03;22.10;74.30
37782;DHT22;23621;50.878;4.584;2023-05-07T01:45:51;22.10;74.30
37782;DHT22;23621;50.878;4.584;2023-05-07T01:48:39;22.10;74.30
37782;DHT22;23621;50.878;4.584;2023-05-07T01:51:27;22.10;74.30
37782;DHT22;23621;50.878;4.584;2023-05-07T01:54:14;22.10;74.20
37782;DHT22;23621;50.878;4.584;2023-05-07T01:57:02;22.20;74.20
37782;DHT22;23621;50.878;4.584;2023-05-07T01:59:49;22.20;74.10
37782;DHT22;23621;50.878;4.584;2023-05-07T02:02:37;22.20;74.10
37782;DHT22;23621;50.878;4.584;2023-05-07T02:05:25;22.20;74.10
37782;DHT22;23621;50.878;4.584;2023-05-07T02:08:12;22.20;74.00
37782;DHT22;23621;50.878;4.584;2023-05-07T02:10:59;22.20;73.90
37782;DHT22;23621;50.878;4.584;2023-05-07T02:13:47;22.20;73.90
37782;DHT22;23621;50.878;4.584;2023-05-07T02:16:34;22.20;73.90
37782;DHT22;23621;50.878;4.584;2023-05-07T02:19:21;22.20;74.00
37782;DHT22;23621;50.878;4.584;2023-05-07T02:22:09;22.20;74.00
37782;DHT22;23621;50.878;4.584;2023-05-07T02:24:57;22.20;74.10
37782;DHT22;23621;50.878;4.584;2023-05-07T02:27:44;22.10;74.10
37782;DHT22;23621;50.878;4.584;2023-05-07T02:30:34;22.10;74.20
37782;DHT22;23621;50.878;4.584;2023-05-07T02:33:21;22.10;74.20
37782;DHT22;23621;50.878;4.584;2023-05-07T02:36:10;22.10;74.00
37782;DHT22;23621;50.878;4.584;2023-05-07T02:38:57;22.10;74.00
37782;DHT22;23621;50.878;4.584;2023-05-07T02:41:47;22.10;73.90
37782;DHT22;23621;50.878;4.584;2023-05-07T02:44:34;22.20;74.00
37782;DHT22;23621;50.878;4.584;2023-05-07T02:47:22;22.10;74.00
37782;DHT22;23621;50.878;4.584;2023-05-07T02:50:10;22.10;74.10
37782;DHT22;23621;50.878;4.584;2023-05-07T02:52:58;22.10;74.20
37782;DHT22;23621;50.878;4.584;2023-05-07T02:55:45;22.00;74.10
37782;DHT22;23621;50.878;4.584;2023-05-07T02:58:32;22.00;74.20
37782;DHT22;23621;50.878;4.584;2023-05-07T03:01:20;21.90;74.20
37782;DHT22;23621;50.878;4.584;2023-05-07T03:04:08;21.90;74.30
37782;DHT22;23621;50.878;4.584;2023-05-07T03:06:55;21.90;74.30
37782;DHT22;23621;50.878;4.584;2023-05-07T03:09:45;21.80;74.20
37782;DHT22;23621;50.878;4.584;2023-05-07T03:12:32;21.80;74.30
37782;DHT22;23621;50.878;4.584;2023-05-07T03:15:19;21.80;74.20
37782;DHT22;23621;50.878;4.584;2023-05-07T03:18:07;21.80;74.40
37782;DHT22;23621;50.878;4.584;2023-05-07T03:20:54;21.80;74.40
37782;DHT22;23621;50.878;4.584;2023-05-07T03:23:42;21.80;74.60
37782;DHT22;23621;50.878;4.584;2023-05-07T03:26:29;21.90;74.80
37782;DHT22;23621;50.878;4.584;2023-05-07T03:29:16;21.90;74.80
37782;DHT22;23621;50.878;4.584;2023-05-07T03:32:04;21.90;74.80
37782;DHT22;23621;50.878;4.584;2023-05-07T03:34:52;21.90;74.80
37782;DHT22;23621;50.878;4.584;2023-05-07T03:37:40;21.90;74.80
37782;DHT22;23621;50.878;4.584;2023-05-07T03:40:27;21.90;74.80
37782;DHT22;23621;50.878;4.584;2023-05-07T03:43:15;21.90;74.70
37782;DHT22;23621;50.878;4.584;2023-05-07T03:46:02;21.90;74.60
37782;DHT22;23621;50.878;4.584;2023-05-07T03:48:50;21.90;74.50
37782;DHT22;23621;50.878;4.584;2023-05-07T03:51:37;21.90;74.60
37782;DHT22;23621;50.878;4.584;2023-05-07T03:54:24;21.80;74.50
37782;DHT22;23621;50.878;4.584;2023-05-07T03:57:11;21.80;74.60
37782;DHT22;23621;50.878;4.584;2023-05-07T03:59:59;21.80;74.70
37782;DHT22;23621;50.878;4.584;2023-05-07T04:02:46;21.80;74.80
37782;DHT22;23621;50.878;4.584;2023-05-07T04:05:34;21.90;74.90
37782;DHT22;23621;50.878;4.584;2023-05-07T04:08:21;21.90;74.80
37782;DHT22;23621;50.878;4.584;2023-05-07T04:11:08;21.90;74.60
37782;DHT22;23621;50.878;4.584;2023-05-07T04:13:55;21.90;74.50
37782;DHT22;23621;50.878;4.584;2023-05-07T04:16:43;21.90;74.40
37782;DHT22;23621;50.878;4.584;2023-05-07T04:19:30;22.00;74.50
37782;DHT22;23621;50.878;4.584;2023-05-07T04:22:17;21.90;74.40
37782;DHT22;23621;50.878;4.584;2023-05-07T04:25:05;21.90;74.50
37782;DHT22;23621;50.878;4.584;2023-05-07T04:27:52;22.00;74.60
37782;DHT22;23621;50.878;4.584;2023-05-07T04:30:42;22.00;74.60
37782;DHT22;23621;50.878;4.584;2023-05-07T04:33:29;21.90;74.60
37782;DHT22;23621;50.878;4.584;2023-05-07T04:36:16;21.90;74.70
37782;DHT22;23621;50.878;4.584;2023-05-07T04:39:04;21.90;74.80
37782;DHT22;23621;50.878;4.584;2023-05-07T04:41:51;21.90;74.90
37782;DHT22;23621;50.878;4.584;2023-05-07T04:44:38;21.90;74.90
37782;DHT22;23621;50.878;4.584;2023-05-07T04:47:26;21.90;74.80
37782;DHT22;23621;50.878;4.584;2023-05-07T04:50:13;21.80;74.90
37782;DHT22;23621;50.878;4.584;2023-05-07T04:53:00;21.80;74.90
37782;DHT22;23621;50.878;4.584;2023-05-07T04:55:48;21.80;74.90
37782;DHT22;23621;50.878;4.584;2023-05-07T04:58:35;21.80;75.00
37782;DHT22;23621;50.878;4.584;2023-05-07T05:01:22;21.80;75.00
37782;DHT22;23621;50.878;4.584;2023-05-07T05:04:10;21.90;75.10
37782;DHT22;23621;50.878;4.584;2023-05-07T05:06:58;21.90;75.20
37782;DHT22;23621;50.878;4.584;2023-05-07T05:09:45;21.90;75.20
37782;DHT22;23621;50.878;4.584;2023-05-07T05:12:32;21.90;75.10
37782;DHT22;23621;50.878;4.584;2023-05-07T05:15:20;21.90;75.20
37782;DHT22;23621;50.878;4.584;2023-05-07T05:18:07;21.90;75.10
37782;DHT22;23621;50.878;4.584;2023-05-07T05:20:54;22.00;75.10
37782;DHT22;23621;50.878;4.584;2023-05-07T05:23:41;22.00;75.00
37782;DHT22;23621;50.878;4.584;2023-05-07T05:26:29;22.10;75.00
37782;DHT22;23621;50.878;4.584;2023-05-07T05:29:16;22.10;75.00
37782;DHT22;23621;50.878;4.584;2023-05-07T05:32:03;22.10;74.90
37782;DHT22;23621;50.878;4.584;2023-05-07T05:34:51;22.00;74.80
37782;DHT22;23621;50.878;4.584;2023-05-07T05:37:38;22.10;75.80
37782;DHT22;23621;50.878;4.584;2023-05-07T05:40:25;22.10;75.00
37782;DHT22;23621;50.878;4.584;2023-05-07T05:43:13;22.20;75.00
37782;DHT22;23621;50.878;4.584;2023-05-07T05:46:00;22.20;75.00
37782;DHT22;23621;50.878;4.584;2023-05-07T05:48:48;22.20;75.00
37782;DHT22;23621;50.878;4.584;2023-05-07T05:51:35;22.30;74.90
37782;DHT22;23621;50.878;4.584;2023-05-07T05:54:23;22.30;74.90
37782;DHT22;23621;50.878;4.584;2023-05-07T05:57:10;22.30;74.90
37782;DHT22;23621;50.878;4.584;2023-05-07T05:59:57;22.40;74.90
37782;DHT22;23621;50.878;4.584;2023-05-07T06:02:44;22.40;74.90
37782;DHT22;23621;50.878;4.584;2023-05-07T06:05:32;22.40;74.90
37782;DHT22;23621;50.878;4.584;2023-05-07T06:08:19;22.40;74.90
37782;DHT22;23621;50.878;4.584;2023-05-07T06:11:06;22.40;74.80
37782;DHT22;23621;50.878;4.584;2023-05-07T06:13:54;22.40;74.80
37782;DHT22;23621;50.878;4.584;2023-05-07T06:16:41;22.40;74.80
37782;DHT22;23621;50.878;4.584;2023-05-07T06:19:29;22.40;74.80
37782;DHT22;23621;50.878;4.584;2023-05-07T06:22:16;22.50;74.80
37782;DHT22;23621;50.878;4.584;2023-05-07T06:25:03;22.50;74.90
37782;DHT22;23621;50.878;4.584;2023-05-07T06:27:50;22.50;75.00
37782;DHT22;23621;50.878;4.584;2023-05-07T06:30:38;22.50;75.00
37782;DHT22;23621;50.878;4.584;2023-05-07T06:33:25;22.40;74.70
37782;DHT22;23621;50.878;4.584;2023-05-07T06:36:12;22.40;74.60
37782;DHT22;23621;50.878;4.584;2023-05-07T06:39:00;22.40;74.40
37782;DHT22;23621;50.878;4.584;2023-05-07T06:41:47;22.40;74.60
37782;DHT22;23621;50.878;4.584;2023-05-07T06:44:34;22.40;74.40
37782;DHT22;23621;50.878;4.584;2023-05-07T06:47:21;22.50;74.30
37782;DHT22;23621;50.878;4.584;2023-05-07T06:50:09;22.50;74.10
37782;DHT22;23621;50.878;4.584;2023-05-07T06:52:57;22.50;74.10
37782;DHT22;23621;50.878;4.584;2023-05-07T06:55:44;22.50;73.90
37782;DHT22;23621;50.878;4.584;2023-05-07T06:58:31;22.50;73.90
37782;DHT22;23621;50.878;4.584;2023-05-07T07:01:18;22.60;74.00
37782;DHT22;23621;50.878;4.584;2023-05-07T07:04:05;22.70;74.00
37782;DHT22;23621;50.878;4.584;2023-05-07T07:06:54;22.70;74.20
37782;DHT22;23621;50.878;4.584;2023-05-07T07:09:41;22.80;74.30
37782;DHT22;23621;50.878;4.584;2023-05-07T07:12:28;22.70;74.10
37782;DHT22;23621;50.878;4.584;2023-05-07T07:15:16;22.80;74.50
37782;DHT22;23621;50.878;4.584;2023-05-07T07:18:04;22.70;74.30
37782;DHT22;23621;50.878;4.584;2023-05-07T07:20:51;22.80;74.50
37782;DHT22;23621;50.878;4.584;2023-05-07T07:23:38;22.80;74.60
37782;DHT22;23621;50.878;4.584;2023-05-07T07:26:26;22.80;74.80
37782;DHT22;23621;50.878;4.584;2023-05-07T07:29:13;22.80;75.00
37782;DHT22;23621;50.878;4.584;2023-05-07T07:32:00;22.70;74.90
37782;DHT22;23621;50.878;4.584;2023-05-07T07:34:47;22.70;75.10
37782;DHT22;23621;50.878;4.584;2023-05-07T07:37:35;22.70;75.30
37782;DHT22;23621;50.878;4.584;2023-05-07T07:40:22;22.70;75.40
37782;DHT22;23621;50.878;4.584;2023-05-07T07:43:10;22.70;75.60
37782;DHT22;23621;50.878;4.584;2023-05-07T07:45:57;22.70;75.70
37782;DHT22;23621;50.878;4.584;2023-05-07T07:48:44;22.70;75.60
37782;DHT22;23621;50.878;4.584;2023-05-07T07:51:31;22.70;75.80
37782;DHT22;23621;50.878;4.584;2023-05-07T07:54:18;22.80;75.90
37782;DHT22;23621;50.878;4.584;2023-05-07T07:57:06;22.90;76.20
37782;DHT22;23621;50.878;4.584;2023-05-07T07:59:53;23.00;76.20
37782;DHT22;23621;50.878;4.584;2023-05-07T08:02:40;23.10;76.40
37782;DHT22;23621;50.878;4.584;2023-05-07T08:05:27;23.10;76.40
37782;DHT22;23621;50.878;4.584;2023-05-07T08:08:15;23.10;76.40
37782;DHT22;23621;50.878;4.584;2023-05-07T08:11:02;23.00;76.40
37782;DHT22;23621;50.878;4.584;2023-05-07T08:13:49;22.90;76.50
37782;DHT22;23621;50.878;4.584;2023-05-07T08:16:37;22.90;76.70
37782;DHT22;23621;50.878;4.584;2023-05-07T08:19:24;22.90;76.80
37782;DHT22;23621;50.878;4.584;2023-05-07T08:22:12;22.90;76.90
37782;DHT22;23621;50.878;4.584;2023-05-07T08:24:59;22.90;77.30
37782;DHT22;23621;50.878;4.584;2023-05-07T08:27:47;22.90;77.30
37782;DHT22;23621;50.878;4.584;2023-05-07T08:30:34;22.90;77.50
37782;DHT22;23621;50.878;4.584;2023-05-07T08:33:21;23.00;77.60
37782;DHT22;23621;50.878;4.584;2023-05-07T08:36:08;23.00;77.90
37782;DHT22;23621;50.878;4.584;2023-05-07T08:38:56;23.00;78.00
37782;DHT22;23621;50.878;4.584;2023-05-07T08:41:44;22.90;79.00
37782;DHT22;23621;50.878;4.584;2023-05-07T08:44:34;22.90;78.50
37782;DHT22;23621;50.878;4.584;2023-05-07T08:47:26;23.00;78.60
37782;DHT22;23621;50.878;4.584;2023-05-07T08:50:16;23.10;78.70
37782;DHT22;23621;50.878;4.584;2023-05-07T08:53:04;22.90;78.80
37782;DHT22;23621;50.878;4.584;2023-05-07T08:55:52;23.00;78.90
37782;DHT22;23621;50.878;4.584;2023-05-07T08:58:40;23.00;79.00
37782;DHT22;23621;50.878;4.584;2023-05-07T09:01:27;23.10;79.20
37782;DHT22;23621;50.878;4.584;2023-05-07T09:04:14;23.10;79.10
37782;DHT22;23621;50.878;4.584;2023-05-07T09:07:02;23.10;79.20
37782;DHT22;23621;50.878;4.584;2023-05-07T09:09:52;23.10;79.30
37782;DHT22;23621;50.878;4.584;2023-05-07T09:12:41;23.10;79.50
37782;DHT22;23621;50.878;4.584;2023-05-07T09:15:29;23.20;79.50
37782;DHT22;23621;50.878;4.584;2023-05-07T09:18:16;23.30;79.80
37782;DHT22;23621;50.878;4.584;2023-05-07T09:21:03;23.30;79.70
37782;DHT22;23621;50.878;4.584;2023-05-07T09:23:51;23.40;79.80
37782;DHT22;23621;50.878;4.584;2023-05-07T09:26:39;23.40;79.60
37782;DHT22;23621;50.878;4.584;2023-05-07T09:29:27;23.40;79.60
37782;DHT22;23621;50.878;4.584;2023-05-07T09:32:17;23.40;79.50
37782;DHT22;23621;50.878;4.584;2023-05-07T09:35:04;23.50;79.50
37782;DHT22;23621;50.878;4.584;2023-05-07T09:37:53;23.50;79.30
37782;DHT22;23621;50.878;4.584;2023-05-07T09:40:40;23.60;79.30
37782;DHT22;23621;50.878;4.584;2023-05-07T09:43:32;23.70;79.40
37782;DHT22;23621;50.878;4.584;2023-05-07T09:46:25;23.80;79.50
37782;DHT22;23621;50.878;4.584;2023-05-07T09:49:22;23.80;79.40
37782;DHT22;23621;50.878;4.584;2023-05-07T09:52:10;23.80;79.30
37782;DHT22;23621;50.878;4.584;2023-05-07T09:54:57;23.80;79.40
37782;DHT22;23621;50.878;4.584;2023-05-07T09:57:47;23.80;79.40
37782;DHT22;23621;50.878;4.584;2023-05-07T10:00:35;23.80;79.40
37782;DHT22;23621;50.878;4.584;2023-05-07T10:03:24;23.80;79.50
37782;DHT22;23621;50.878;4.584;2023-05-07T10:06:13;23.80;79.50
37782;DHT22;23621;50.878;4.584;2023-05-07T10:09:03;23.80;79.60
37782;DHT22;23621;50.878;4.584;2023-05-07T10:11:50;23.90;79.90
37782;DHT22;23621;50.878;4.584;2023-05-07T10:14:38;23.90;79.70
37782;DHT22;23621;50.878;4.584;2023-05-07T10:17:26;24.00;79.80
37782;DHT22;23621;50.878;4.584;2023-05-07T10:20:13;24.00;79.80
37782;DHT22;23621;50.878;4.584;2023-05-07T10:23:04;24.00;79.80
37782;DHT22;23621;50.878;4.584;2023-05-07T10:25:52;24.00;79.80
37782;DHT22;23621;50.878;4.584;2023-05-07T10:28:50;24.00;79.90
37782;DHT22;23621;50.878;4.584;2023-05-07T10:34:40;24.00;80.00
37782;DHT22;23621;50.878;4.584;2023-05-07T10:37:29;24.00;80.00
37782;DHT22;23621;50.878;4.584;2023-05-07T10:40:17;24.00;79.90
37782;DHT22;23621;50.878;4.584;2023-05-07T10:43:07;24.00;79.80
37782;DHT22;23621;50.878;4.584;2023-05-07T10:46:10;23.90;79.60
37782;DHT22;23621;50.878;4.584;2023-05-07T10:52:24;24.00;79.80
37782;DHT22;23621;50.878;4.584;2023-05-07T11:01:50;24.20;80.20
37782;DHT22;23621;50.878;4.584;2023-05-07T11:04:39;24.20;80.40
37782;DHT22;23621;50.878;4.584;2023-05-07T11:07:30;24.30;80.10
37782;DHT22;23621;50.878;4.584;2023-05-07T11:10:17;24.30;80.10
37782;DHT22;23621;50.878;4.584;2023-05-07T11:13:05;24.30;79.90
37782;DHT22;23621;50.878;4.584;2023-05-07T11:15:52;24.30;79.90
37782;DHT22;23621;50.878;4.584;2023-05-07T11:18:56;24.30;79.70
37782;DHT22;23621;50.878;4.584;2023-05-07T11:21:43;24.30;79.40
37782;DHT22;23621;50.878;4.584;2023-05-07T11:24:41;24.20;79.40
37782;DHT22;23621;50.878;4.584;2023-05-07T11:27:29;24.30;79.40
37782;DHT22;23621;50.878;4.584;2023-05-07T11:30:17;24.30;79.40
37782;DHT22;23621;50.878;4.584;2023-05-07T11:33:08;24.40;79.50
37782;DHT22;23621;50.878;4.584;2023-05-07T11:35:56;24.50;79.40
37782;DHT22;23621;50.878;4.584;2023-05-07T11:38:44;24.50;79.50
37782;DHT22;23621;50.878;4.584;2023-05-07T11:41:38;24.60;79.60
37782;DHT22;23621;50.878;4.584;2023-05-07T11:44:25;24.60;79.70
37782;DHT22;23621;50.878;4.584;2023-05-07T11:47:25;24.70;79.70
37782;DHT22;23621;50.878;4.584;2023-05-07T11:50:13;24.70;79.60
37782;DHT22;23621;50.878;4.584;2023-05-07T11:53:01;24.80;79.80
37782;DHT22;23621;50.878;4.584;2023-05-07T11:55:57;24.80;79.80
37782;DHT22;23621;50.878;4.584;2023-05-07T11:58:46;24.90;79.70
37782;DHT22;23621;50.878;4.584;2023-05-07T12:01:35;24.90;79.60
37782;DHT22;23621;50.878;4.584;2023-05-07T12:04:23;24.90;79.60
37782;DHT22;23621;50.878;4.584;2023-05-07T12:07:14;25.00;79.50
37782;DHT22;23621;50.878;4.584;2023-05-07T12:10:06;25.00;79.60
37782;DHT22;23621;50.878;4.584;2023-05-07T12:12:53;25.00;79.50
37782;DHT22;23621;50.878;4.584;2023-05-07T12:15:41;25.00;79.20
37782;DHT22;23621;50.878;4.584;2023-05-07T12:18:29;25.10;79.30
37782;DHT22;23621;50.878;4.584;2023-05-07T12:21:17;25.20;79.20
37782;DHT22;23621;50.878;4.584;2023-05-07T12:24:05;25.20;79.10
37782;DHT22;23621;50.878;4.584;2023-05-07T12:26:52;25.20;78.90
37782;DHT22;23621;50.878;4.584;2023-05-07T12:29:43;25.30;78.60
37782;DHT22;23621;50.878;4.584;2023-05-07T12:32:33;25.20;78.40
37782;DHT22;23621;50.878;4.584;2023-05-07T12:35:31;25.30;78.50
37782;DHT22;23621;50.878;4.584;2023-05-07T12:38:19;25.30;78.70
37782;DHT22;23621;50.878;4.584;2023-05-07T12:41:08;25.30;79.20
37782;DHT22;23621;50.878;4.584;2023-05-07T12:43:56;25.30;78.90
37782;DHT22;23621;50.878;4.584;2023-05-07T12:46:46;25.30;79.70
37782;DHT22;23621;50.878;4.584;2023-05-07T12:49:35;25.30;78.90
37782;DHT22;23621;50.878;4.584;2023-05-07T12:52:24;25.30;78.70
37782;DHT22;23621;50.878;4.584;2023-05-07T12:55:14;25.40;78.70
37782;DHT22;23621;50.878;4.584;2023-05-07T12:58:01;25.30;78.60
37782;DHT22;23621;50.878;4.584;2023-05-07T13:00:51;25.30;78.70
37782;DHT22;23621;50.878;4.584;2023-05-07T13:03:38;25.30;78.90
37782;DHT22;23621;50.878;4.584;2023-05-07T13:06:26;25.30;78.90
37782;DHT22;23621;50.878;4.584;2023-05-07T13:09:13;25.30;79.10
37782;DHT22;23621;50.878;4.584;2023-05-07T13:12:00;25.30;79.10
37782;DHT22;23621;50.878;4.584;2023-05-07T13:14:48;25.30;79.00
37782;DHT22;23621;50.878;4.584;2023-05-07T13:17:36;25.30;78.60
37782;DHT22;23621;50.878;4.584;2023-05-07T13:20:23;25.40;78.40
37782;DHT22;23621;50.878;4.584;2023-05-07T13:23:11;25.40;78.20
37782;DHT22;23621;50.878;4.584;2023-05-07T13:25:58;25.40;78.40
37782;DHT22;23621;50.878;4.584;2023-05-07T13:28:50;25.40;78.30
37782;DHT22;23621;50.878;4.584;2023-05-07T13:31:37;25.40;78.10
37782;DHT22;23621;50.878;4.584;2023-05-07T13:34:29;25.50;77.80
37782;DHT22;23621;50.878;4.584;2023-05-07T13:37:16;25.50;77.90
37782;DHT22;23621;50.878;4.584;2023-05-07T13:40:04;25.40;77.90
37782;DHT22;23621;50.878;4.584;2023-05-07T13:42:51;25.40;78.20
37782;DHT22;23621;50.878;4.584;2023-05-07T13:45:39;25.50;78.30
37782;DHT22;23621;50.878;4.584;2023-05-07T13:48:26;25.50;78.50
37782;DHT22;23621;50.878;4.584;2023-05-07T13:51:15;25.50;78.50
37782;DHT22;23621;50.878;4.584;2023-05-07T13:54:04;25.50;78.40
37782;DHT22;23621;50.878;4.584;2023-05-07T13:56:51;25.50;78.50
37782;DHT22;23621;50.878;4.584;2023-05-07T13:59:38;25.50;78.00
37782;DHT22;23621;50.878;4.584;2023-05-07T14:02:25;25.40;77.80
37782;DHT22;23621;50.878;4.584;2023-05-07T14:05:13;25.40;77.70
37782;DHT22;23621;50.878;4.584;2023-05-07T14:08:00;25.40;77.60
37782;DHT22;23621;50.878;4.584;2023-05-07T14:10:47;25.40;77.50
37782;DHT22;23621;50.878;4.584;2023-05-07T14:13:35;25.40;77.60
37782;DHT22;23621;50.878;4.584;2023-05-07T14:16:22;25.40;77.80
37782;DHT22;23621;50.878;4.584;2023-05-07T14:19:10;25.50;77.90
37782;DHT22;23621;50.878;4.584;2023-05-07T14:21:57;25.50;77.90
37782;DHT22;23621;50.878;4.584;2023-05-07T14:24:45;25.40;77.70
37782;DHT22;23621;50.878;4.584;2023-05-07T14:27:42;25.40;77.80
37782;DHT22;23621;50.878;4.584;2023-05-07T14:30:29;25.50;77.90
37782;DHT22;23621;50.878;4.584;2023-05-07T14:33:17;25.50;77.50
37782;DHT22;23621;50.878;4.584;2023-05-07T14:36:04;25.50;77.50
37782;DHT22;23621;50.878;4.584;2023-05-07T14:38:52;25.60;77.60
37782;DHT22;23621;50.878;4.584;2023-05-07T14:41:42;25.60;77.50
37782;DHT22;23621;50.878;4.584;2023-05-07T14:44:29;25.60;77.30
37782;DHT22;23621;50.878;4.584;2023-05-07T14:47:18;25.60;77.60
37782;DHT22;23621;50.878;4.584;2023-05-07T14:50:06;25.60;77.90
37782;DHT22;23621;50.878;4.584;2023-05-07T14:52:53;25.60;78.10
37782;DHT22;23621;50.878;4.584;2023-05-07T14:55:40;25.60;77.90
37782;DHT22;23621;50.878;4.584;2023-05-07T14:58:27;25.60;77.60
37782;DHT22;23621;50.878;4.584;2023-05-07T15:01:15;25.50;77.90
37782;DHT22;23621;50.878;4.584;2023-05-07T15:04:05;25.50;78.20
37782;DHT22;23621;50.878;4.584;2023-05-07T15:06:53;25.50;78.40
37782;DHT22;23621;50.878;4.584;2023-05-07T15:09:43;25.50;78.70
37782;DHT22;23621;50.878;4.584;2023-05-07T15:12:31;25.50;78.50
37782;DHT22;23621;50.878;4.584;2023-05-07T15:15:18;25.50;78.50
37782;DHT22;23621;50.878;4.584;2023-05-07T15:18:05;25.50;78.60
37782;DHT22;23621;50.878;4.584;2023-05-07T15:20:53;25.50;78.80
37782;DHT22;23621;50.878;4.584;2023-05-07T15:23:40;25.40;78.90
37782;DHT22;23621;50.878;4.584;2023-05-07T15:26:28;25.40;79.10
37782;DHT22;23621;50.878;4.584;2023-05-07T15:29:16;25.40;79.00
37782;DHT22;23621;50.878;4.584;2023-05-07T15:32:03;25.40;79.00
37782;DHT22;23621;50.878;4.584;2023-05-07T15:34:51;25.40;79.10
37782;DHT22;23621;50.878;4.584;2023-05-07T15:37:38;25.40;79.10
37782;DHT22;23621;50.878;4.584;2023-05-07T15:40:25;25.40;79.10
37782;DHT22;23621;50.878;4.584;2023-05-07T15:43:12;25.40;79.10
37782;DHT22;23621;50.878;4.584;2023-05-07T15:46:00;25.40;79.20
37782;DHT22;23621;50.878;4.584;2023-05-07T15:48:47;25.40;79.20
37782;DHT22;23621;50.878;4.584;2023-05-07T15:51:35;25.40;79.30
37782;DHT22;23621;50.878;4.584;2023-05-07T15:54:22;25.40;79.30
37782;DHT22;23621;50.878;4.584;2023-05-07T15:57:11;25.40;79.10
37782;DHT22;23621;50.878;4.584;2023-05-07T15:59:58;25.40;79.00
37782;DHT22;23621;50.878;4.584;2023-05-07T16:02:46;25.40;79.20
37782;DHT22;23621;50.878;4.584;2023-05-07T16:05:33;25.30;79.10
37782;DHT22;23621;50.878;4.584;2023-05-07T16:08:21;25.30;79.10
37782;DHT22;23621;50.878;4.584;2023-05-07T16:11:08;25.40;79.10
37782;DHT22;23621;50.878;4.584;2023-05-07T16:13:55;25.40;79.20
37782;DHT22;23621;50.878;4.584;2023-05-07T16:16:43;25.40;79.20
37782;DHT22;23621;50.878;4.584;2023-05-07T16:19:30;25.40;78.90
37782;DHT22;23621;50.878;4.584;2023-05-07T16:22:17;25.30;78.60
37782;DHT22;23621;50.878;4.584;2023-05-07T16:25:05;25.30;78.40
37782;DHT22;23621;50.878;4.584;2023-05-07T16:27:52;25.30;78.20
37782;DHT22;23621;50.878;4.584;2023-05-07T16:30:41;25.20;78.00
37782;DHT22;23621;50.878;4.584;2023-05-07T16:33:28;25.20;77.80
37782;DHT22;23621;50.878;4.584;2023-05-07T16:36:16;25.20;77.70
37782;DHT22;23621;50.878;4.584;2023-05-07T16:39:03;25.20;77.60
37782;DHT22;23621;50.878;4.584;2023-05-07T16:41:51;25.20;77.50
37782;DHT22;23621;50.878;4.584;2023-05-07T16:44:38;25.20;77.50
37782;DHT22;23621;50.878;4.584;2023-05-07T16:47:26;25.20;77.60
37782;DHT22;23621;50.878;4.584;2023-05-07T16:50:13;25.10;77.40
37782;DHT22;23621;50.878;4.584;2023-05-07T16:53:00;25.10;77.30
37782;DHT22;23621;50.878;4.584;2023-05-07T16:55:48;25.10;77.10
37782;DHT22;23621;50.878;4.584;2023-05-07T16:58:35;25.10;77.30
37782;DHT22;23621;50.878;4.584;2023-05-07T17:01:22;25.10;77.40
37782;DHT22;23621;50.878;4.584;2023-05-07T17:04:10;25.10;77.80
37782;DHT22;23621;50.878;4.584;2023-05-07T17:06:58;25.00;77.90
37782;DHT22;23621;50.878;4.584;2023-05-07T17:09:45;25.00;78.00
37782;DHT22;23621;50.878;4.584;2023-05-07T17:12:32;25.00;78.10
37782;DHT22;23621;50.878;4.584;2023-05-07T17:15:21;25.00;78.40
37782;DHT22;23621;50.878;4.584;2023-05-07T17:18:09;25.00;78.50
37782;DHT22;23621;50.878;4.584;2023-05-07T17:20:56;25.00;78.70
37782;DHT22;23621;50.878;4.584;2023-05-07T17:23:43;25.00;78.80
37782;DHT22;23621;50.878;4.584;2023-05-07T17:26:31;25.00;79.00
37782;DHT22;23621;50.878;4.584;2023-05-07T17:29:21;24.90;79.20
37782;DHT22;23621;50.878;4.584;2023-05-07T17:32:09;24.90;79.00
37782;DHT22;23621;50.878;4.584;2023-05-07T17:34:57;24.90;79.10
37782;DHT22;23621;50.878;4.584;2023-05-07T17:37:44;24.90;79.10
37782;DHT22;23621;50.878;4.584;2023-05-07T17:40:38;24.80;79.00
37782;DHT22;23621;50.878;4.584;2023-05-07T17:43:25;24.90;79.20
37782;DHT22;23621;50.878;4.584;2023-05-07T17:46:13;24.90;79.30
37782;DHT22;23621;50.878;4.584;2023-05-07T17:49:00;24.90;79.40
37782;DHT22;23621;50.878;4.584;2023-05-07T17:51:47;24.90;79.40
37782;DHT22;23621;50.878;4.584;2023-05-07T17:54:41;24.90;79.50